Terminal Aerodrome Forecast
Issued by NWS Shreveport, LA

Home | Current Version | Previous Version | Text Only | Print | Product List | Glossary On
Versions: 1 2 3 4 5 6 7 8 9 10 11 12 13 14
000
FTUS44 KSHV 190500
TAFELD
TAF
KELD 190537Z 1906/2006 04006KT 5SM BR OVC004
     FM191500 04005KT 4SM -RA BR OVC006
     FM191700 04006KT 3SM -SHRA BR OVC005
     FM200000 03004KT 4SM BR OVC006=

USA.gov is the U.S. government's official web portal to all federal, state and local government web resources and services.